Portada
METAR-TAF:

METAR-TAF

Aeropuertos :

Agen, Francia

latitud: 44-11N, longitud: 000-36E, altitud: 61 m

Observación

El informe se hizo hace 24 minutos, a las 18:00 UTC
Viento calma
Temperatura 22°C
Humedad 57%
Presión 1018 hPa
Visibilidad: 1200 m

METAR: LFBA 231800Z AUTO 00000KT 8000 1200 R29/P2000 NSC 22/13 Q1018 NOSIG

Hora: 20:24 (18:24 UTC)

Pronóstico

El informe se hizo hace 4 horas y 24 minutos, a las 14:00 UTC
Pronóstico válido del 23 a las 15 UTC al 23 a las 24 UTC
Viento 5 kt del este-sureste
Visibilidad 10 km o más
sin nubes por debajo de 1500 m y sin presencia de cumulonimbus.

TAF: LFBA 231400Z 2315/2324 12005KT CAVOK

Observaciones y pronósticos meteorológicos de más de 4000 aeropuertos (mensajes METAR y TAF).

Los puntos amarillos y rojos representan las estaciones disponibles.

Ponga el ratón en el punto deseado para ver el nombre de la estación.

Haga clic para ver las observaciones y los pronósticos meteorológicos.

Para cambiar el mapa : haga clic en los botones verdes con una cruz de color negro para hacer un zoom, en el botón verde con un guión para alejar o en las flechas verdes para mapas adyacentes.


METAR-TAF: